»·PEaware :: SKW13 KLAX-KSFO

SKW13 :: KLAX-KSFO

FLIGHT INFORMATION

Flight Status: Arrived
Operator:
SkyWest Airlines
More flights by this operator :: More flights under this callsign
Pilot: Taylor M. (19061)
Aircraft: AIRBUS A320
(A320)
More flights by this aircraft type
Origin: KLAX Los Angeles Intl
United States
Destination: KSFO San Francisco Intl
United States
More flights between these airports :: More routes between these airports
Route: +SUMMR1 STOKD SERFR SERFR3
File this flight plan on PilotEdge
Remarks: L
Altitude:
(Current/Filed)
34,000ft
Speed:
(Current/Filed)
440kts
Departed: 09-May-18 05:00 PM
Arrived: 09-May-18 06:04 PM
Distance/Time
Traveled:
293nm/1:04
Distance/Time
To Go:
Arrived

Flight Plot

Page will automatically refresh every two minutes.

Flight plan parsing failed; only flown route is shown


Map Options




Map Legend


Flown Route
Filed Route
Departure Airport
Arrival Airport
Navaid (VOR, NDB)
Fix

Horizontal Profiles

Position Reports

Time Latitude Longitude Heading Altitude Ground
Speed
09-May-18 16:22 33.940326 -118.397624 57 114ft 0kts
09-May-18 16:23 33.940326 -118.397624 57 114ft 0kts
09-May-18 16:24 33.940326 -118.397624 57 114ft 0kts
09-May-18 16:25 33.940326 -118.397624 57 114ft 0kts
09-May-18 16:26 33.940326 -118.397624 57 114ft 0kts
09-May-18 16:27 33.940326 -118.397624 57 114ft 0kts
09-May-18 16:28 33.940326 -118.397624 57 114ft 0kts
09-May-18 16:29 33.940326 -118.397624 57 114ft 0kts
09-May-18 16:30 33.940326 -118.397624 57 114ft 0kts
09-May-18 16:31 33.940326 -118.397624 57 114ft 0kts
09-May-18 16:32 33.940326 -118.397624 57 114ft 0kts
09-May-18 16:33 33.940326 -118.397624 57 114ft 0kts
09-May-18 16:34 33.940326 -118.397624 57 114ft 0kts
09-May-18 16:35 33.940326 -118.397624 57 114ft 0kts
09-May-18 16:36 33.940326 -118.397624 57 114ft 0kts
09-May-18 16:37 33.940326 -118.397624 57 114ft 0kts
09-May-18 16:38 33.940326 -118.397624 57 114ft 0kts
09-May-18 16:39 33.940326 -118.397624 57 114ft 0kts
09-May-18 16:40 33.940326 -118.397624 57 114ft 0kts
09-May-18 16:41 33.940326 -118.397624 57 114ft 0kts
09-May-18 16:42 33.940326 -118.397624 57 114ft 0kts
09-May-18 16:43 33.940326 -118.397624 57 114ft 0kts
09-May-18 16:44 33.940326 -118.397624 57 114ft 0kts
09-May-18 16:45 33.940328 -118.397622 57 114ft 0kts
09-May-18 16:46 33.940077 -118.398094 58 114ft 3kts
09-May-18 16:47 33.939988 -118.398269 59 114ft 0kts
09-May-18 16:48 33.940009 -118.398164 108 114ft 0kts
09-May-18 16:49 33.940002 -118.398142 111 114ft 0kts
09-May-18 16:50 33.939974 -118.398118 141 114ft 0kts
09-May-18 16:51 33.939749 -118.398028 168 114ft 5kts
09-May-18 16:52 33.939052 -118.396887 81 112ft 12kts
09-May-18 16:53 33.939451 -118.393684 84 108ft 23kts
09-May-18 16:54 33.939732 -118.389782 85 104ft 23kts
09-May-18 16:55 33.940383 -118.384266 79 103ft 23kts
09-May-18 16:56 33.939376 -118.383046 170 101ft 10kts
09-May-18 16:57 33.938456 -118.382936 176 101ft 0kts
09-May-18 16:58 33.938456 -118.382936 176 101ft 0kts
09-May-18 16:59 33.937160 -118.383288 238 101ft 24kts
09-May-18 17:00 33.935308 -118.399563 261 139ft 153kts
09-May-18 17:01 33.931497 -118.442645 261 2256ft 174kts
09-May-18 17:02 33.928632 -118.494996 266 3802ft 234kts
09-May-18 17:03 33.923185 -118.564298 263 6138ft 261kts
09-May-18 17:04 33.917736 -118.641970 269 8876ft 271kts
09-May-18 17:05 33.917506 -118.717653 268 10880ft 296kts
09-May-18 17:06 33.917143 -118.809454 268 11940ft 345kts
09-May-18 17:07 33.919079 -118.902720 270 12910ft 345kts
09-May-18 17:08 33.922908 -119.004533 280 13143ft 350kts
09-May-18 17:09 33.977194 -119.086164 313 14984ft 372kts
09-May-18 17:10 34.042487 -119.159456 313 16652ft 381kts
09-May-18 17:11 34.104058 -119.228679 313 18061ft 389kts
09-May-18 17:12 34.171967 -119.305158 313 19452ft 397kts
09-May-18 17:13 34.236895 -119.378493 313 20662ft 404kts
09-May-18 17:14 34.308313 -119.459271 313 21880ft 411kts
09-May-18 17:15 34.378022 -119.538310 313 22951ft 418kts
09-May-18 17:16 34.455845 -119.626781 313 24047ft 425kts
09-May-18 17:17 34.521514 -119.701620 313 24918ft 430kts
09-May-18 17:18 34.589542 -119.779328 313 25760ft 435kts
09-May-18 17:19 34.659448 -119.859373 313 26581ft 440kts
09-May-18 17:20 34.726291 -119.936097 313 27714ft 435kts
09-May-18 17:21 34.791586 -120.011225 313 28850ft 430kts
09-May-18 17:22 34.855530 -120.084960 313 29959ft 424kts
09-May-18 17:23 34.918866 -120.158153 313 31073ft 418kts
09-May-18 17:24 34.988184 -120.238462 312 31925ft 420kts
09-May-18 17:25 35.058608 -120.320210 312 32278ft 431kts
09-May-18 17:26 35.121681 -120.393610 312 32721ft 435kts
09-May-18 17:27 35.186099 -120.468769 312 33420ft 432kts
09-May-18 17:28 35.250607 -120.544413 311 34070ft 430kts
09-May-18 17:29 35.315013 -120.619943 311 34086ft 432kts
09-May-18 17:30 35.372985 -120.688036 311 34085ft 432kts
09-May-18 17:31 35.434303 -120.760216 311 34077ft 432kts
09-May-18 17:32 35.508166 -120.841376 318 34071ft 437kts
09-May-18 17:33 35.577905 -120.905993 318 34071ft 437kts
09-May-18 17:34 35.658295 -120.980749 318 34071ft 437kts
09-May-18 17:35 35.737888 -121.054926 317 34069ft 437kts
09-May-18 17:36 35.819443 -121.131132 317 34066ft 437kts
09-May-18 17:37 35.901930 -121.208415 317 34065ft 437kts
09-May-18 17:38 35.999014 -121.299634 317 33989ft 439kts
09-May-18 17:39 36.065612 -121.361674 320 32240ft 447kts
09-May-18 17:40 36.147519 -121.426481 323 30265ft 447kts
09-May-18 17:41 36.239358 -121.498258 323 27817ft 448kts
09-May-18 17:42 36.331076 -121.570115 324 25159ft 451kts
09-May-18 17:43 36.421132 -121.640891 324 23475ft 429kts
09-May-18 17:44 36.508180 -121.709567 323 22416ft 378kts
09-May-18 17:45 36.585842 -121.771007 323 20798ft 363kts
09-May-18 17:46 36.661294 -121.830771 323 19147ft 353kts
09-May-18 17:47 36.732405 -121.887025 327 17507ft 347kts
09-May-18 17:48 36.813352 -121.914426 343 15845ft 347kts
09-May-18 17:49 36.895504 -121.937380 343 14230ft 339kts
09-May-18 17:50 36.973660 -121.961737 339 12667ft 330kts
09-May-18 17:51 37.043120 -121.988824 340 11253ft 325kts
09-May-18 17:52 37.110324 -122.015037 340 10184ft 303kts
09-May-18 17:53 37.172050 -122.039278 340 9558ft 271kts
09-May-18 17:54 37.233361 -122.063307 340 8278ft 274kts
09-May-18 17:55 37.293773 -122.087009 340 7678ft 257kts
09-May-18 17:56 37.349367 -122.108611 340 6680ft 254kts
09-May-18 17:57 37.408435 -122.130457 343 5447ft 257kts
09-May-18 17:58 37.465992 -122.150049 342 4619ft 244kts
09-May-18 17:59 37.519164 -122.168321 341 3818ft 224kts
09-May-18 18:00 37.552063 -122.216149 296 3006ft 197kts
09-May-18 18:01 37.574292 -122.269174 295 1765ft 196kts
09-May-18 18:02 37.596133 -122.321252 294 687ft 184kts
09-May-18 18:03 37.613044 -122.361585 296 16ft 126kts
09-May-18 18:04 37.618422 -122.374803 296 22ft 19kts
09-May-18 18:05 37.618998 -122.376850 274 26ft 0kts
09-May-18 18:06 37.619009 -122.377081 272 26ft 3kts
09-May-18 18:07 37.618975 -122.379576 268 31ft 0kts
09-May-18 18:08 37.618270 -122.379645 160 31ft 16kts
09-May-18 18:09 37.615343 -122.381463 233 32ft 9kts
09-May-18 18:10 37.615161 -122.381934 250 32ft 0kts

Navigation Log

Ident Type
Flight plan parsing failed, navigation log unavailable